sensor_id;sensor_type;location;lat;lon;timestamp;temperature;humidity
7900;DHT22;3995;50.856;4.404;2023-11-21T00:01:59;14.50;68.60
7900;DHT22;3995;50.856;4.404;2023-11-21T00:04:28;14.50;68.70
7900;DHT22;3995;50.856;4.404;2023-11-21T00:06:55;14.50;68.80
7900;DHT22;3995;50.856;4.404;2023-11-21T00:09:22;14.50;68.80
7900;DHT22;3995;50.856;4.404;2023-11-21T00:11:49;14.50;68.80
7900;DHT22;3995;50.856;4.404;2023-11-21T00:14:16;14.50;68.70
7900;DHT22;3995;50.856;4.404;2023-11-21T00:16:43;14.50;68.70
7900;DHT22;3995;50.856;4.404;2023-11-21T00:19:11;14.50;68.60
7900;DHT22;3995;50.856;4.404;2023-11-21T00:21:40;14.50;68.60
7900;DHT22;3995;50.856;4.404;2023-11-21T00:24:09;14.50;68.50
7900;DHT22;3995;50.856;4.404;2023-11-21T00:26:39;14.50;68.40
7900;DHT22;3995;50.856;4.404;2023-11-21T00:29:06;14.50;68.40
7900;DHT22;3995;50.856;4.404;2023-11-21T00:31:34;14.50;68.30
7900;DHT22;3995;50.856;4.404;2023-11-21T00:34:02;14.50;68.30
7900;DHT22;3995;50.856;4.404;2023-11-21T00:36:30;14.50;68.30
7900;DHT22;3995;50.856;4.404;2023-11-21T00:38:59;14.50;68.30
7900;DHT22;3995;50.856;4.404;2023-11-21T00:41:27;14.60;68.30
7900;DHT22;3995;50.856;4.404;2023-11-21T00:43:54;14.50;68.20
7900;DHT22;3995;50.856;4.404;2023-11-21T00:46:21;14.50;68.20
7900;DHT22;3995;50.856;4.404;2023-11-21T00:48:49;14.50;68.20
7900;DHT22;3995;50.856;4.404;2023-11-21T00:51:17;14.50;68.20
7900;DHT22;3995;50.856;4.404;2023-11-21T00:53:43;14.50;68.10
7900;DHT22;3995;50.856;4.404;2023-11-21T00:56:12;14.50;68.10
7900;DHT22;3995;50.856;4.404;2023-11-21T00:58:39;14.50;68.10
7900;DHT22;3995;50.856;4.404;2023-11-21T01:01:08;14.50;68.10
7900;DHT22;3995;50.856;4.404;2023-11-21T01:03:35;14.50;68.00
7900;DHT22;3995;50.856;4.404;2023-11-21T01:06:02;14.50;68.20
7900;DHT22;3995;50.856;4.404;2023-11-21T01:08:30;14.50;68.00
7900;DHT22;3995;50.856;4.404;2023-11-21T01:10:57;14.50;67.90
7900;DHT22;3995;50.856;4.404;2023-11-21T01:13:25;14.40;67.80
7900;DHT22;3995;50.856;4.404;2023-11-21T01:15:55;14.40;67.80
7900;DHT22;3995;50.856;4.404;2023-11-21T01:18:22;14.40;67.90
7900;DHT22;3995;50.856;4.404;2023-11-21T01:20:51;14.40;67.90
7900;DHT22;3995;50.856;4.404;2023-11-21T01:23:18;14.40;68.00
7900;DHT22;3995;50.856;4.404;2023-11-21T01:25:45;14.40;68.00
7900;DHT22;3995;50.856;4.404;2023-11-21T01:28:12;14.30;68.00
7900;DHT22;3995;50.856;4.404;2023-11-21T01:30:41;14.40;68.10
7900;DHT22;3995;50.856;4.404;2023-11-21T01:33:08;14.40;68.00
7900;DHT22;3995;50.856;4.404;2023-11-21T01:35:35;14.40;68.10
7900;DHT22;3995;50.856;4.404;2023-11-21T01:38:02;14.40;68.10
7900;DHT22;3995;50.856;4.404;2023-11-21T01:40:29;14.40;68.20
7900;DHT22;3995;50.856;4.404;2023-11-21T01:42:56;14.40;68.10
7900;DHT22;3995;50.856;4.404;2023-11-21T01:45:24;14.40;68.10
7900;DHT22;3995;50.856;4.404;2023-11-21T01:47:53;14.40;68.80
7900;DHT22;3995;50.856;4.404;2023-11-21T01:50:20;14.40;68.20
7900;DHT22;3995;50.856;4.404;2023-11-21T01:52:48;14.30;68.00
7900;DHT22;3995;50.856;4.404;2023-11-21T01:55:17;14.40;68.20
7900;DHT22;3995;50.856;4.404;2023-11-21T01:57:45;14.40;68.20
7900;DHT22;3995;50.856;4.404;2023-11-21T02:00:13;14.30;68.10
7900;DHT22;3995;50.856;4.404;2023-11-21T02:02:45;14.40;68.30
7900;DHT22;3995;50.856;4.404;2023-11-21T02:05:15;14.40;68.30
7900;DHT22;3995;50.856;4.404;2023-11-21T02:07:44;14.40;68.30
7900;DHT22;3995;50.856;4.404;2023-11-21T02:10:13;14.40;68.30
7900;DHT22;3995;50.856;4.404;2023-11-21T02:12:41;14.40;68.30
7900;DHT22;3995;50.856;4.404;2023-11-21T02:15:10;14.40;68.20
7900;DHT22;3995;50.856;4.404;2023-11-21T02:17:44;14.40;68.30
7900;DHT22;3995;50.856;4.404;2023-11-21T02:20:13;14.40;68.30
7900;DHT22;3995;50.856;4.404;2023-11-21T02:22:41;14.40;68.30
7900;DHT22;3995;50.856;4.404;2023-11-21T02:25:10;14.40;68.20
7900;DHT22;3995;50.856;4.404;2023-11-21T02:27:37;14.40;68.20
7900;DHT22;3995;50.856;4.404;2023-11-21T02:30:05;14.40;68.20
7900;DHT22;3995;50.856;4.404;2023-11-21T02:32:33;14.40;68.20
7900;DHT22;3995;50.856;4.404;2023-11-21T02:35:00;14.40;68.30
7900;DHT22;3995;50.856;4.404;2023-11-21T02:37:28;14.40;68.30
7900;DHT22;3995;50.856;4.404;2023-11-21T02:39:55;14.40;68.30
7900;DHT22;3995;50.856;4.404;2023-11-21T02:42:23;14.40;68.20
7900;DHT22;3995;50.856;4.404;2023-11-21T02:44:50;14.40;68.30
7900;DHT22;3995;50.856;4.404;2023-11-21T02:47:17;14.40;68.30
7900;DHT22;3995;50.856;4.404;2023-11-21T02:49:44;14.40;68.30
7900;DHT22;3995;50.856;4.404;2023-11-21T02:52:11;14.40;68.30
7900;DHT22;3995;50.856;4.404;2023-11-21T02:54:38;14.40;68.30
7900;DHT22;3995;50.856;4.404;2023-11-21T02:57:05;14.40;68.30
7900;DHT22;3995;50.856;4.404;2023-11-21T02:59:34;14.40;68.40
7900;DHT22;3995;50.856;4.404;2023-11-21T03:02:01;14.40;68.30
7900;DHT22;3995;50.856;4.404;2023-11-21T03:04:28;14.40;68.30
7900;DHT22;3995;50.856;4.404;2023-11-21T03:06:58;14.40;68.30
7900;DHT22;3995;50.856;4.404;2023-11-21T03:09:25;14.40;68.30
7900;DHT22;3995;50.856;4.404;2023-11-21T03:11:52;14.40;68.40
7900;DHT22;3995;50.856;4.404;2023-11-21T03:14:19;14.40;68.40
7900;DHT22;3995;50.856;4.404;2023-11-21T03:16:48;14.40;68.40
7900;DHT22;3995;50.856;4.404;2023-11-21T03:19:16;14.40;68.40
7900;DHT22;3995;50.856;4.404;2023-11-21T03:21:43;14.40;68.40
7900;DHT22;3995;50.856;4.404;2023-11-21T03:24:10;14.40;68.40
7900;DHT22;3995;50.856;4.404;2023-11-21T03:26:37;14.40;68.20
7900;DHT22;3995;50.856;4.404;2023-11-21T03:29:04;14.40;68.10
7900;DHT22;3995;50.856;4.404;2023-11-21T03:31:31;14.40;68.10
7900;DHT22;3995;50.856;4.404;2023-11-21T03:34:00;14.40;68.10
7900;DHT22;3995;50.856;4.404;2023-11-21T03:36:30;14.40;68.20
7900;DHT22;3995;50.856;4.404;2023-11-21T03:38:57;14.40;68.20
7900;DHT22;3995;50.856;4.404;2023-11-21T03:41:26;14.40;68.10
7900;DHT22;3995;50.856;4.404;2023-11-21T03:43:54;14.50;68.00
7900;DHT22;3995;50.856;4.404;2023-11-21T03:46:21;14.40;67.90
7900;DHT22;3995;50.856;4.404;2023-11-21T03:48:48;14.40;67.80
7900;DHT22;3995;50.856;4.404;2023-11-21T03:51:16;14.40;67.80
7900;DHT22;3995;50.856;4.404;2023-11-21T03:53:43;14.40;67.90
7900;DHT22;3995;50.856;4.404;2023-11-21T03:56:10;14.40;68.00
7900;DHT22;3995;50.856;4.404;2023-11-21T03:58:37;14.40;68.10
7900;DHT22;3995;50.856;4.404;2023-11-21T04:01:04;14.40;68.20
7900;DHT22;3995;50.856;4.404;2023-11-21T04:03:31;14.40;68.30
7900;DHT22;3995;50.856;4.404;2023-11-21T04:05:58;14.40;68.40
7900;DHT22;3995;50.856;4.404;2023-11-21T04:08:26;14.40;68.50
7900;DHT22;3995;50.856;4.404;2023-11-21T04:10:53;14.40;68.60
7900;DHT22;3995;50.856;4.404;2023-11-21T04:13:21;14.40;68.60
7900;DHT22;3995;50.856;4.404;2023-11-21T04:15:48;14.40;68.60
7900;DHT22;3995;50.856;4.404;2023-11-21T04:18:15;14.40;68.60
7900;DHT22;3995;50.856;4.404;2023-11-21T04:20:42;14.40;68.80
7900;DHT22;3995;50.856;4.404;2023-11-21T04:23:09;14.40;68.60
7900;DHT22;3995;50.856;4.404;2023-11-21T04:25:40;14.40;68.60
7900;DHT22;3995;50.856;4.404;2023-11-21T04:28:07;14.40;68.70
7900;DHT22;3995;50.856;4.404;2023-11-21T04:30:34;14.40;68.70
7900;DHT22;3995;50.856;4.404;2023-11-21T04:33:01;14.40;68.70
7900;DHT22;3995;50.856;4.404;2023-11-21T04:35:29;14.40;68.60
7900;DHT22;3995;50.856;4.404;2023-11-21T04:37:56;14.40;68.70
7900;DHT22;3995;50.856;4.404;2023-11-21T04:40:23;14.40;68.80
7900;DHT22;3995;50.856;4.404;2023-11-21T04:42:54;14.40;68.80
7900;DHT22;3995;50.856;4.404;2023-11-21T04:45:22;14.50;69.00
7900;DHT22;3995;50.856;4.404;2023-11-21T04:47:50;14.50;69.00
7900;DHT22;3995;50.856;4.404;2023-11-21T04:50:18;14.50;68.90
7900;DHT22;3995;50.856;4.404;2023-11-21T04:52:45;14.40;68.80
7900;DHT22;3995;50.856;4.404;2023-11-21T04:55:13;14.50;68.80
7900;DHT22;3995;50.856;4.404;2023-11-21T04:57:41;14.50;68.90
7900;DHT22;3995;50.856;4.404;2023-11-21T05:00:10;14.50;68.90
7900;DHT22;3995;50.856;4.404;2023-11-21T05:02:38;14.50;69.00
7900;DHT22;3995;50.856;4.404;2023-11-21T05:05:06;14.50;69.10
7900;DHT22;3995;50.856;4.404;2023-11-21T05:07:36;14.50;69.00
7900;DHT22;3995;50.856;4.404;2023-11-21T05:10:04;14.50;69.00
7900;DHT22;3995;50.856;4.404;2023-11-21T05:12:37;14.50;69.00
7900;DHT22;3995;50.856;4.404;2023-11-21T05:15:05;14.50;69.10
7900;DHT22;3995;50.856;4.404;2023-11-21T05:17:34;14.50;69.10
7900;DHT22;3995;50.856;4.404;2023-11-21T05:20:01;14.50;69.10
7900;DHT22;3995;50.856;4.404;2023-11-21T05:22:29;14.50;69.10
7900;DHT22;3995;50.856;4.404;2023-11-21T05:24:56;14.50;69.80
7900;DHT22;3995;50.856;4.404;2023-11-21T05:27:25;14.50;69.30
7900;DHT22;3995;50.856;4.404;2023-11-21T05:29:51;14.50;69.40
7900;DHT22;3995;50.856;4.404;2023-11-21T05:32:19;14.50;69.40
7900;DHT22;3995;50.856;4.404;2023-11-21T05:34:47;14.50;69.40
7900;DHT22;3995;50.856;4.404;2023-11-21T05:37:15;14.50;69.40
7900;DHT22;3995;50.856;4.404;2023-11-21T05:39:43;14.50;69.40
7900;DHT22;3995;50.856;4.404;2023-11-21T05:42:10;14.50;69.40
7900;DHT22;3995;50.856;4.404;2023-11-21T05:44:37;14.50;69.40
7900;DHT22;3995;50.856;4.404;2023-11-21T05:47:04;14.50;69.40
7900;DHT22;3995;50.856;4.404;2023-11-21T05:49:33;14.50;69.40
7900;DHT22;3995;50.856;4.404;2023-11-21T05:52:01;14.50;69.30
7900;DHT22;3995;50.856;4.404;2023-11-21T05:54:28;14.60;69.30
7900;DHT22;3995;50.856;4.404;2023-11-21T05:56:55;14.50;69.30
7900;DHT22;3995;50.856;4.404;2023-11-21T05:59:22;14.50;69.20
7900;DHT22;3995;50.856;4.404;2023-11-21T06:01:49;14.50;69.20
7900;DHT22;3995;50.856;4.404;2023-11-21T06:04:16;14.50;69.30
7900;DHT22;3995;50.856;4.404;2023-11-21T06:06:44;14.50;69.20
7900;DHT22;3995;50.856;4.404;2023-11-21T06:09:12;14.50;69.30
7900;DHT22;3995;50.856;4.404;2023-11-21T06:11:39;14.60;69.30
7900;DHT22;3995;50.856;4.404;2023-11-21T06:14:06;14.50;69.20
7900;DHT22;3995;50.856;4.404;2023-11-21T06:16:35;14.50;69.20
7900;DHT22;3995;50.856;4.404;2023-11-21T06:19:02;14.50;69.30
7900;DHT22;3995;50.856;4.404;2023-11-21T06:21:28;14.50;69.40
7900;DHT22;3995;50.856;4.404;2023-11-21T06:23:55;14.60;69.50
7900;DHT22;3995;50.856;4.404;2023-11-21T06:26:24;14.50;69.40
7900;DHT22;3995;50.856;4.404;2023-11-21T06:28:51;14.50;69.30
7900;DHT22;3995;50.856;4.404;2023-11-21T06:31:19;14.50;69.20
7900;DHT22;3995;50.856;4.404;2023-11-21T06:33:47;14.50;69.40
7900;DHT22;3995;50.856;4.404;2023-11-21T06:36:15;14.50;69.40
7900;DHT22;3995;50.856;4.404;2023-11-21T06:38:42;14.50;69.40
7900;DHT22;3995;50.856;4.404;2023-11-21T06:41:11;14.50;69.40
7900;DHT22;3995;50.856;4.404;2023-11-21T06:43:42;14.50;69.50
7900;DHT22;3995;50.856;4.404;2023-11-21T06:46:11;14.50;69.50
7900;DHT22;3995;50.856;4.404;2023-11-21T06:48:42;14.50;69.60
7900;DHT22;3995;50.856;4.404;2023-11-21T06:51:09;14.50;69.60
7900;DHT22;3995;50.856;4.404;2023-11-21T06:53:37;14.50;69.50
7900;DHT22;3995;50.856;4.404;2023-11-21T06:56:05;14.50;69.60
7900;DHT22;3995;50.856;4.404;2023-11-21T06:58:43;14.50;69.60
7900;DHT22;3995;50.856;4.404;2023-11-21T07:01:11;14.50;69.60
7900;DHT22;3995;50.856;4.404;2023-11-21T07:03:38;14.50;69.60
7900;DHT22;3995;50.856;4.404;2023-11-21T07:06:07;14.60;69.70
7900;DHT22;3995;50.856;4.404;2023-11-21T07:08:34;14.50;69.60
7900;DHT22;3995;50.856;4.404;2023-11-21T07:11:01;14.50;69.70
7900;DHT22;3995;50.856;4.404;2023-11-21T07:13:28;14.50;69.70
7900;DHT22;3995;50.856;4.404;2023-11-21T07:15:57;14.50;69.80
7900;DHT22;3995;50.856;4.404;2023-11-21T07:18:24;14.50;69.70
7900;DHT22;3995;50.856;4.404;2023-11-21T07:20:51;14.50;69.70
7900;DHT22;3995;50.856;4.404;2023-11-21T07:23:18;14.60;69.80
7900;DHT22;3995;50.856;4.404;2023-11-21T07:25:48;14.60;69.80
7900;DHT22;3995;50.856;4.404;2023-11-21T07:28:15;14.50;69.70
7900;DHT22;3995;50.856;4.404;2023-11-21T07:30:42;14.50;69.70
7900;DHT22;3995;50.856;4.404;2023-11-21T07:33:11;14.50;69.80
7900;DHT22;3995;50.856;4.404;2023-11-21T07:35:37;14.50;70.00
7900;DHT22;3995;50.856;4.404;2023-11-21T07:38:04;14.50;70.10
7900;DHT22;3995;50.856;4.404;2023-11-21T07:40:31;14.50;70.10
7900;DHT22;3995;50.856;4.404;2023-11-21T07:42:58;14.60;70.20
7900;DHT22;3995;50.856;4.404;2023-11-21T07:45:25;14.60;70.20
7900;DHT22;3995;50.856;4.404;2023-11-21T07:47:54;14.50;70.10
7900;DHT22;3995;50.856;4.404;2023-11-21T07:50:23;14.50;70.20
7900;DHT22;3995;50.856;4.404;2023-11-21T07:52:50;14.60;70.10
7900;DHT22;3995;50.856;4.404;2023-11-21T07:55:17;14.50;70.10
7900;DHT22;3995;50.856;4.404;2023-11-21T07:57:44;14.50;70.10
7900;DHT22;3995;50.856;4.404;2023-11-21T08:00:12;14.50;70.10
7900;DHT22;3995;50.856;4.404;2023-11-21T08:02:41;14.60;70.10
7900;DHT22;3995;50.856;4.404;2023-11-21T08:05:11;14.50;70.00
7900;DHT22;3995;50.856;4.404;2023-11-21T08:07:39;14.50;70.10
7900;DHT22;3995;50.856;4.404;2023-11-21T08:10:08;14.50;70.00
7900;DHT22;3995;50.856;4.404;2023-11-21T08:12:36;14.50;70.10
7900;DHT22;3995;50.856;4.404;2023-11-21T08:15:06;14.50;70.10
7900;DHT22;3995;50.856;4.404;2023-11-21T08:17:35;14.50;70.30
7900;DHT22;3995;50.856;4.404;2023-11-21T08:20:02;14.50;70.30
7900;DHT22;3995;50.856;4.404;2023-11-21T08:22:29;14.50;70.40
7900;DHT22;3995;50.856;4.404;2023-11-21T08:24:58;14.50;70.40
7900;DHT22;3995;50.856;4.404;2023-11-21T08:27:25;14.50;70.40
7900;DHT22;3995;50.856;4.404;2023-11-21T08:29:52;14.60;70.50
7900;DHT22;3995;50.856;4.404;2023-11-21T08:32:20;14.50;70.30
7900;DHT22;3995;50.856;4.404;2023-11-21T08:34:47;14.60;70.50
7900;DHT22;3995;50.856;4.404;2023-11-21T08:37:16;14.50;70.50
7900;DHT22;3995;50.856;4.404;2023-11-21T08:39:43;14.60;70.60
7900;DHT22;3995;50.856;4.404;2023-11-21T08:42:12;14.60;70.60
7900;DHT22;3995;50.856;4.404;2023-11-21T08:44:39;14.60;70.60
7900;DHT22;3995;50.856;4.404;2023-11-21T08:47:06;14.60;70.60
7900;DHT22;3995;50.856;4.404;2023-11-21T08:49:33;14.60;70.60
7900;DHT22;3995;50.856;4.404;2023-11-21T08:52:00;14.60;70.60
7900;DHT22;3995;50.856;4.404;2023-11-21T08:54:27;14.60;70.60
7900;DHT22;3995;50.856;4.404;2023-11-21T08:56:54;14.60;70.70
7900;DHT22;3995;50.856;4.404;2023-11-21T08:59:25;14.60;70.80
7900;DHT22;3995;50.856;4.404;2023-11-21T09:01:52;14.60;70.70
7900;DHT22;3995;50.856;4.404;2023-11-21T09:04:19;14.60;70.80
7900;DHT22;3995;50.856;4.404;2023-11-21T09:06:46;14.60;70.80
7900;DHT22;3995;50.856;4.404;2023-11-21T09:09:13;14.60;70.80
7900;DHT22;3995;50.856;4.404;2023-11-21T09:11:40;14.60;70.80
7900;DHT22;3995;50.856;4.404;2023-11-21T09:14:07;14.70;70.90
7900;DHT22;3995;50.856;4.404;2023-11-21T09:16:35;14.60;70.80
7900;DHT22;3995;50.856;4.404;2023-11-21T09:19:04;14.60;70.80
7900;DHT22;3995;50.856;4.404;2023-11-21T09:21:31;14.60;70.80
7900;DHT22;3995;50.856;4.404;2023-11-21T09:23:58;14.60;71.00
7900;DHT22;3995;50.856;4.404;2023-11-21T09:26:25;14.60;71.00
7900;DHT22;3995;50.856;4.404;2023-11-21T09:28:52;14.70;71.10
7900;DHT22;3995;50.856;4.404;2023-11-21T09:31:22;14.60;71.10
7900;DHT22;3995;50.856;4.404;2023-11-21T09:33:51;14.70;71.20
7900;DHT22;3995;50.856;4.404;2023-11-21T09:36:18;14.70;71.30
7900;DHT22;3995;50.856;4.404;2023-11-21T09:38:47;14.70;71.30
7900;DHT22;3995;50.856;4.404;2023-11-21T09:41:21;14.70;71.40
7900;DHT22;3995;50.856;4.404;2023-11-21T09:43:51;14.70;71.40
7900;DHT22;3995;50.856;4.404;2023-11-21T09:46:22;14.70;71.40
7900;DHT22;3995;50.856;4.404;2023-11-21T09:48:54;14.70;71.40
7900;DHT22;3995;50.856;4.404;2023-11-21T09:51:24;14.70;71.40
7900;DHT22;3995;50.856;4.404;2023-11-21T09:53:57;14.70;71.40
7900;DHT22;3995;50.856;4.404;2023-11-21T09:56:27;14.70;71.40
7900;DHT22;3995;50.856;4.404;2023-11-21T09:58:55;14.70;71.50
7900;DHT22;3995;50.856;4.404;2023-11-21T10:01:25;14.70;71.60
7900;DHT22;3995;50.856;4.404;2023-11-21T10:03:55;14.70;71.60
7900;DHT22;3995;50.856;4.404;2023-11-21T10:06:22;14.70;71.60
7900;DHT22;3995;50.856;4.404;2023-11-21T10:08:51;14.70;71.70
7900;DHT22;3995;50.856;4.404;2023-11-21T10:11:20;14.70;71.70
7900;DHT22;3995;50.856;4.404;2023-11-21T10:13:49;14.70;71.70
7900;DHT22;3995;50.856;4.404;2023-11-21T10:16:19;14.70;71.70
7900;DHT22;3995;50.856;4.404;2023-11-21T10:18:49;14.70;71.60
7900;DHT22;3995;50.856;4.404;2023-11-21T10:21:21;14.80;71.70
7900;DHT22;3995;50.856;4.404;2023-11-21T10:23:49;14.70;71.50
7900;DHT22;3995;50.856;4.404;2023-11-21T10:26:19;14.70;71.60
7900;DHT22;3995;50.856;4.404;2023-11-21T10:28:55;14.70;71.50
7900;DHT22;3995;50.856;4.404;2023-11-21T10:31:23;14.80;71.40
7900;DHT22;3995;50.856;4.404;2023-11-21T10:33:50;14.80;71.40
7900;DHT22;3995;50.856;4.404;2023-11-21T10:36:29;14.70;71.30
7900;DHT22;3995;50.856;4.404;2023-11-21T10:38:56;14.80;71.30
7900;DHT22;3995;50.856;4.404;2023-11-21T10:41:26;14.70;71.30
7900;DHT22;3995;50.856;4.404;2023-11-21T10:43:53;14.80;71.40
7900;DHT22;3995;50.856;4.404;2023-11-21T10:46:22;14.80;71.40
7900;DHT22;3995;50.856;4.404;2023-11-21T10:48:52;14.80;71.40
7900;DHT22;3995;50.856;4.404;2023-11-21T10:51:22;14.80;71.40
7900;DHT22;3995;50.856;4.404;2023-11-21T10:53:51;14.80;71.40
7900;DHT22;3995;50.856;4.404;2023-11-21T10:56:18;14.80;71.40
7900;DHT22;3995;50.856;4.404;2023-11-21T10:58:49;14.80;71.40
7900;DHT22;3995;50.856;4.404;2023-11-21T11:01:18;14.80;71.40
7900;DHT22;3995;50.856;4.404;2023-11-21T11:03:47;14.80;71.40
7900;DHT22;3995;50.856;4.404;2023-11-21T11:06:15;14.80;71.50
7900;DHT22;3995;50.856;4.404;2023-11-21T11:08:44;14.80;71.50
7900;DHT22;3995;50.856;4.404;2023-11-21T11:11:12;14.90;71.60
7900;DHT22;3995;50.856;4.404;2023-11-21T11:13:43;14.90;71.60
7900;DHT22;3995;50.856;4.404;2023-11-21T11:16:12;14.90;71.50
7900;DHT22;3995;50.856;4.404;2023-11-21T11:18:42;14.90;71.50
7900;DHT22;3995;50.856;4.404;2023-11-21T11:21:17;14.90;71.50
7900;DHT22;3995;50.856;4.404;2023-11-21T11:23:59;14.90;71.60
7900;DHT22;3995;50.856;4.404;2023-11-21T11:26:42;14.90;71.70
7900;DHT22;3995;50.856;4.404;2023-11-21T11:29:18;14.90;71.70
7900;DHT22;3995;50.856;4.404;2023-11-21T11:32:00;14.90;71.80
7900;DHT22;3995;50.856;4.404;2023-11-21T11:34:32;14.90;71.80
7900;DHT22;3995;50.856;4.404;2023-11-21T11:37:03;14.90;71.80
7900;DHT22;3995;50.856;4.404;2023-11-21T11:39:34;14.90;71.80
7900;DHT22;3995;50.856;4.404;2023-11-21T11:42:05;14.90;71.80
7900;DHT22;3995;50.856;4.404;2023-11-21T11:44:49;14.90;71.90
7900;DHT22;3995;50.856;4.404;2023-11-21T11:47:21;15.00;71.80
7900;DHT22;3995;50.856;4.404;2023-11-21T11:50:03;14.90;71.90
7900;DHT22;3995;50.856;4.404;2023-11-21T11:52:40;15.00;71.80
7900;DHT22;3995;50.856;4.404;2023-11-21T11:55:09;14.90;71.90
7900;DHT22;3995;50.856;4.404;2023-11-21T11:57:39;15.00;71.90
7900;DHT22;3995;50.856;4.404;2023-11-21T12:00:10;15.00;71.80
7900;DHT22;3995;50.856;4.404;2023-11-21T12:02:42;15.00;71.80
7900;DHT22;3995;50.856;4.404;2023-11-21T12:05:11;15.00;71.90
7900;DHT22;3995;50.856;4.404;2023-11-21T12:07:50;15.00;72.00
7900;DHT22;3995;50.856;4.404;2023-11-21T12:10:20;15.00;71.80
7900;DHT22;3995;50.856;4.404;2023-11-21T12:12:53;14.90;71.90
7900;DHT22;3995;50.856;4.404;2023-11-21T12:15:20;15.00;72.00
7900;DHT22;3995;50.856;4.404;2023-11-21T12:17:48;15.00;72.00
7900;DHT22;3995;50.856;4.404;2023-11-21T12:20:18;15.00;71.90
7900;DHT22;3995;50.856;4.404;2023-11-21T12:22:47;15.00;71.90
7900;DHT22;3995;50.856;4.404;2023-11-21T12:25:14;15.00;71.90
7900;DHT22;3995;50.856;4.404;2023-11-21T12:27:44;15.00;71.90
7900;DHT22;3995;50.856;4.404;2023-11-21T12:30:13;15.00;71.80
7900;DHT22;3995;50.856;4.404;2023-11-21T12:32:42;15.00;71.80
7900;DHT22;3995;50.856;4.404;2023-11-21T12:35:09;15.00;71.80
7900;DHT22;3995;50.856;4.404;2023-11-21T12:37:37;15.00;71.70
7900;DHT22;3995;50.856;4.404;2023-11-21T12:40:06;15.00;71.60
7900;DHT22;3995;50.856;4.404;2023-11-21T12:42:37;15.00;71.60
7900;DHT22;3995;50.856;4.404;2023-11-21T12:45:20;15.00;71.60
7900;DHT22;3995;50.856;4.404;2023-11-21T12:47:48;15.00;71.40
7900;DHT22;3995;50.856;4.404;2023-11-21T12:50:18;15.00;71.60
7900;DHT22;3995;50.856;4.404;2023-11-21T12:52:50;15.00;71.70
7900;DHT22;3995;50.856;4.404;2023-11-21T12:55:20;15.00;71.80
7900;DHT22;3995;50.856;4.404;2023-11-21T12:57:48;15.00;71.80
7900;DHT22;3995;50.856;4.404;2023-11-21T13:00:18;15.00;71.80
7900;DHT22;3995;50.856;4.404;2023-11-21T13:02:55;15.00;71.80
7900;DHT22;3995;50.856;4.404;2023-11-21T13:05:25;15.00;71.80
7900;DHT22;3995;50.856;4.404;2023-11-21T13:07:52;15.00;71.80
7900;DHT22;3995;50.856;4.404;2023-11-21T13:10:21;15.00;71.80
7900;DHT22;3995;50.856;4.404;2023-11-21T13:12:52;15.00;71.90
7900;DHT22;3995;50.856;4.404;2023-11-21T13:15:20;15.00;71.90
7900;DHT22;3995;50.856;4.404;2023-11-21T13:17:47;15.00;72.00
7900;DHT22;3995;50.856;4.404;2023-11-21T13:20:17;15.00;72.00
7900;DHT22;3995;50.856;4.404;2023-11-21T13:22:48;15.00;72.00
7900;DHT22;3995;50.856;4.404;2023-11-21T13:25:15;15.00;72.10
7900;DHT22;3995;50.856;4.404;2023-11-21T13:27:44;15.00;72.20
7900;DHT22;3995;50.856;4.404;2023-11-21T13:30:12;15.00;72.20
7900;DHT22;3995;50.856;4.404;2023-11-21T13:32:42;15.00;72.20
7900;DHT22;3995;50.856;4.404;2023-11-21T13:35:09;15.00;72.30
7900;DHT22;3995;50.856;4.404;2023-11-21T13:37:50;15.00;72.30
7900;DHT22;3995;50.856;4.404;2023-11-21T13:40:22;15.00;72.30
7900;DHT22;3995;50.856;4.404;2023-11-21T13:42:52;15.00;72.40
7900;DHT22;3995;50.856;4.404;2023-11-21T13:45:21;15.00;72.40
7900;DHT22;3995;50.856;4.404;2023-11-21T13:47:50;15.00;72.40
7900;DHT22;3995;50.856;4.404;2023-11-21T13:50:23;15.00;72.40
7900;DHT22;3995;50.856;4.404;2023-11-21T13:52:56;15.00;72.40
7900;DHT22;3995;50.856;4.404;2023-11-21T13:55:23;15.00;72.40
7900;DHT22;3995;50.856;4.404;2023-11-21T13:57:51;15.00;72.40
7900;DHT22;3995;50.856;4.404;2023-11-21T14:00:19;15.00;72.40
7900;DHT22;3995;50.856;4.404;2023-11-21T14:03:03;15.00;72.40
7900;DHT22;3995;50.856;4.404;2023-11-21T14:05:36;15.00;72.30
7900;DHT22;3995;50.856;4.404;2023-11-21T14:08:05;15.00;72.30
7900;DHT22;3995;50.856;4.404;2023-11-21T14:10:32;15.00;72.20
7900;DHT22;3995;50.856;4.404;2023-11-21T14:13:06;15.00;72.20
7900;DHT22;3995;50.856;4.404;2023-11-21T14:15:33;15.00;72.20
7900;DHT22;3995;50.856;4.404;2023-11-21T14:18:04;15.00;72.20
7900;DHT22;3995;50.856;4.404;2023-11-21T14:20:33;14.90;72.10
7900;DHT22;3995;50.856;4.404;2023-11-21T14:23:03;15.00;72.20
7900;DHT22;3995;50.856;4.404;2023-11-21T14:25:31;15.00;72.30
7900;DHT22;3995;50.856;4.404;2023-11-21T14:27:58;15.00;72.30
7900;DHT22;3995;50.856;4.404;2023-11-21T14:30:26;15.00;72.30
7900;DHT22;3995;50.856;4.404;2023-11-21T14:32:54;15.00;72.30
7900;DHT22;3995;50.856;4.404;2023-11-21T14:35:21;15.00;72.30
7900;DHT22;3995;50.856;4.404;2023-11-21T14:37:48;15.00;72.20
7900;DHT22;3995;50.856;4.404;2023-11-21T14:40:17;15.00;72.20
7900;DHT22;3995;50.856;4.404;2023-11-21T14:42:48;15.00;72.20
7900;DHT22;3995;50.856;4.404;2023-11-21T14:45:18;15.00;72.20
7900;DHT22;3995;50.856;4.404;2023-11-21T14:47:46;15.00;72.20
7900;DHT22;3995;50.856;4.404;2023-11-21T14:50:20;15.00;72.10
7900;DHT22;3995;50.856;4.404;2023-11-21T14:53:15;15.00;72.10
7900;DHT22;3995;50.856;4.404;2023-11-21T14:56:01;15.00;72.20
7900;DHT22;3995;50.856;4.404;2023-11-21T14:58:29;15.00;72.20
7900;DHT22;3995;50.856;4.404;2023-11-21T15:00:57;15.00;72.20
7900;DHT22;3995;50.856;4.404;2023-11-21T15:03:24;14.90;72.00
7900;DHT22;3995;50.856;4.404;2023-11-21T15:06:14;15.00;72.10
7900;DHT22;3995;50.856;4.404;2023-11-21T15:08:54;14.90;72.00
7900;DHT22;3995;50.856;4.404;2023-11-21T15:11:40;14.90;72.10
7900;DHT22;3995;50.856;4.404;2023-11-21T15:14:07;14.90;72.10
7900;DHT22;3995;50.856;4.404;2023-11-21T15:16:35;14.90;72.10
7900;DHT22;3995;50.856;4.404;2023-11-21T15:19:08;14.90;72.00
7900;DHT22;3995;50.856;4.404;2023-11-21T15:21:38;14.90;72.00
7900;DHT22;3995;50.856;4.404;2023-11-21T15:24:05;14.90;72.00
7900;DHT22;3995;50.856;4.404;2023-11-21T15:26:33;14.90;72.00
7900;DHT22;3995;50.856;4.404;2023-11-21T15:29:02;14.90;71.90
7900;DHT22;3995;50.856;4.404;2023-11-21T15:31:29;14.90;71.80
7900;DHT22;3995;50.856;4.404;2023-11-21T15:33:56;14.90;71.80
7900;DHT22;3995;50.856;4.404;2023-11-21T15:36:25;15.00;71.80
7900;DHT22;3995;50.856;4.404;2023-11-21T15:38:52;14.90;71.70
7900;DHT22;3995;50.856;4.404;2023-11-21T15:41:19;14.90;71.60
7900;DHT22;3995;50.856;4.404;2023-11-21T15:43:47;14.90;71.70
7900;DHT22;3995;50.856;4.404;2023-11-21T15:46:17;14.90;71.60
7900;DHT22;3995;50.856;4.404;2023-11-21T15:48:44;14.90;71.60
7900;DHT22;3995;50.856;4.404;2023-11-21T15:51:16;15.00;71.70
7900;DHT22;3995;50.856;4.404;2023-11-21T15:53:43;15.00;71.80
7900;DHT22;3995;50.856;4.404;2023-11-21T15:56:10;14.90;71.70
7900;DHT22;3995;50.856;4.404;2023-11-21T15:58:38;14.90;71.80
7900;DHT22;3995;50.856;4.404;2023-11-21T16:01:08;14.90;71.80
7900;DHT22;3995;50.856;4.404;2023-11-21T16:03:37;14.90;71.90
7900;DHT22;3995;50.856;4.404;2023-11-21T16:06:04;14.90;71.80
7900;DHT22;3995;50.856;4.404;2023-11-21T16:08:35;14.90;71.90
7900;DHT22;3995;50.856;4.404;2023-11-21T16:11:04;14.90;71.90
7900;DHT22;3995;50.856;4.404;2023-11-21T16:13:31;14.90;71.90